Terminal Aerodrome Forecast
Issued by NWS

Home | Current Version | Previous Version | Graphics & Text | Print | Product List | Glossary On
Versions: 1 2 3 4 5 6 7 8 9 10 11 12 13 14 15 16 17 18 19 20 21
000
FTUS43 KOAX 251703 AAB
TAFCDR
TAF AMD
KCDR 251703Z 2517/2612 03015G28KT 3/4SM -SN BR OVC013
      TEMPO 2517/2520 4SM -SN OVC025
     FM252000 36014G24KT P6SM VCSH SCT020 BKN030
     FM260400 01011KT P6SM OVC050=

USA.gov is the U.S. government's official web portal to all federal, state and local government web resources and services.